createdAt,value
2022-11-05T00:00:57.435Z,0.00
2022-11-05T00:01:57.427Z,0.00
2022-11-05T00:02:57.396Z,0.00
2022-11-05T00:03:57.475Z,0.00
2022-11-05T00:04:57.366Z,0.00
2022-11-05T00:05:57.375Z,0.00
2022-11-05T00:06:57.345Z,0.00
2022-11-05T00:07:57.325Z,0.00
2022-11-05T00:08:57.335Z,0.00
2022-11-05T00:09:57.318Z,0.00
2022-11-05T00:10:57.290Z,0.00
2022-11-05T00:11:57.283Z,0.00
2022-11-05T00:12:57.263Z,0.00
2022-11-05T00:13:57.264Z,0.00
2022-11-05T00:14:57.237Z,0.00
2022-11-05T00:15:57.246Z,0.00
2022-11-05T00:16:57.217Z,0.00
2022-11-05T00:17:57.203Z,0.00
2022-11-05T00:18:57.190Z,0.00
2022-11-05T00:19:57.177Z,0.00
2022-11-05T00:20:57.192Z,0.00
2022-11-05T00:21:57.164Z,0.00
2022-11-05T00:22:57.134Z,0.00
2022-11-05T00:23:57.125Z,0.00
2022-11-05T00:24:57.105Z,0.00
2022-11-05T00:25:57.118Z,0.00
2022-11-05T00:26:57.095Z,0.00
2022-11-05T00:27:57.063Z,0.00
2022-11-05T00:28:57.064Z,0.00
2022-11-05T00:29:57.034Z,0.00
2022-11-05T00:30:57.014Z,0.00
2022-11-05T00:31:57.019Z,0.00
2022-11-05T00:32:57.022Z,0.00
2022-11-05T00:33:57.075Z,0.00
2022-11-05T00:34:56.964Z,0.00
2022-11-05T00:35:56.973Z,0.00
2022-11-05T00:36:56.963Z,0.00
2022-11-05T00:37:56.944Z,0.00
2022-11-05T00:38:56.934Z,0.00
2022-11-05T00:39:56.909Z,0.00
2022-11-05T00:40:56.899Z,0.00
2022-11-05T00:41:56.900Z,0.00
2022-11-05T00:42:56.883Z,0.00
2022-11-05T00:43:56.865Z,0.00
2022-11-05T00:44:56.841Z,0.00
2022-11-05T00:45:56.830Z,0.00
2022-11-05T00:46:59.889Z,0.00
2022-11-05T00:47:56.805Z,0.00
2022-11-05T00:48:56.779Z,0.00
2022-11-05T00:49:56.799Z,0.00
2022-11-05T00:50:56.770Z,0.00
2022-11-05T00:51:56.778Z,0.00
2022-11-05T00:52:56.769Z,0.00
2022-11-05T00:53:56.724Z,0.00
2022-11-05T00:54:56.708Z,0.00
2022-11-05T00:55:56.703Z,0.00
2022-11-05T00:56:59.411Z,0.00
2022-11-05T00:57:57.683Z,0.00
2022-11-05T00:58:56.675Z,0.00
2022-11-05T00:59:56.643Z,0.00
2022-11-05T01:00:56.664Z,0.00
2022-11-05T01:01:56.764Z,0.00
2022-11-05T01:02:56.685Z,0.00
2022-11-05T01:03:56.588Z,0.00
2022-11-05T01:04:56.593Z,0.00
2022-11-05T01:05:56.558Z,0.00
2022-11-05T01:06:56.569Z,0.00
2022-11-05T01:07:56.548Z,0.00
2022-11-05T01:08:56.550Z,0.00
2022-11-05T01:09:56.522Z,0.00
2022-11-05T01:10:56.501Z,0.00
2022-11-05T01:11:56.509Z,0.00
2022-11-05T01:12:56.488Z,0.00
2022-11-05T01:13:56.467Z,0.00
2022-11-05T01:14:56.450Z,0.00
2022-11-05T01:15:56.450Z,0.00
2022-11-05T01:16:56.430Z,0.00
2022-11-05T01:17:56.408Z,0.00
2022-11-05T01:18:56.396Z,0.00
2022-11-05T01:19:56.379Z,0.00
2022-11-05T01:20:56.379Z,0.00
2022-11-05T01:21:56.347Z,0.00
2022-11-05T01:22:56.369Z,0.00
2022-11-05T01:23:56.317Z,0.00
2022-11-05T01:24:56.326Z,0.00
2022-11-05T01:25:56.299Z,0.00
2022-11-05T01:26:56.307Z,0.00
2022-11-05T01:27:56.320Z,0.00
2022-11-05T01:28:56.322Z,0.00
2022-11-05T01:29:56.246Z,0.00
2022-11-05T01:30:56.247Z,0.00
2022-11-05T01:31:56.225Z,0.00
2022-11-05T01:32:56.226Z,0.00
2022-11-05T01:33:56.217Z,0.00
2022-11-05T01:34:56.189Z,0.00
2022-11-05T01:35:56.164Z,0.00
2022-11-05T01:36:56.171Z,0.00
2022-11-05T01:37:56.148Z,0.00
2022-11-05T01:38:56.177Z,0.00
2022-11-05T01:39:56.130Z,0.00
2022-11-05T01:40:56.104Z,0.00
2022-11-05T01:41:56.085Z,0.00
2022-11-05T01:42:56.099Z,0.00
2022-11-05T01:43:56.064Z,0.00
2022-11-05T01:44:56.062Z,0.00
2022-11-05T01:45:56.043Z,0.00
2022-11-05T01:46:56.025Z,0.00
2022-11-05T01:47:56.025Z,0.00
2022-11-05T01:49:01.782Z,0.00
2022-11-05T01:49:56.981Z,0.00
2022-11-05T01:50:55.974Z,0.00
2022-11-05T01:51:55.954Z,0.00
2022-11-05T01:52:55.992Z,0.00
2022-11-05T01:53:55.931Z,0.00
2022-11-05T01:54:55.924Z,0.00
2022-11-05T01:55:55.894Z,0.00
2022-11-05T01:56:55.900Z,0.00
2022-11-05T01:57:55.926Z,0.00
2022-11-05T01:58:55.873Z,0.00
2022-11-05T01:59:55.843Z,0.00
2022-11-05T02:00:55.850Z,0.00
2022-11-05T02:01:55.885Z,0.00
2022-11-05T02:02:55.880Z,0.00
2022-11-05T02:03:55.792Z,0.00
2022-11-05T02:04:55.793Z,0.00
2022-11-05T02:05:55.805Z,0.00
2022-11-05T02:06:55.762Z,0.00
2022-11-05T02:07:55.758Z,0.00
2022-11-05T02:08:55.741Z,0.00
2022-11-05T02:09:55.723Z,0.00
2022-11-05T02:10:55.723Z,0.00
2022-11-05T02:11:55.708Z,0.00
2022-11-05T02:12:55.704Z,0.00
2022-11-05T02:13:55.660Z,0.00
2022-11-05T02:14:55.692Z,0.00
2022-11-05T02:15:55.651Z,0.00
2022-11-05T02:16:55.640Z,0.00
2022-11-05T02:17:55.629Z,0.00
2022-11-05T02:18:55.649Z,0.00
2022-11-05T02:19:55.588Z,0.00
2022-11-05T02:20:55.580Z,0.00
2022-11-05T02:21:55.562Z,0.00
2022-11-05T02:22:55.558Z,0.00
2022-11-05T02:23:55.553Z,0.00
2022-11-05T02:24:55.519Z,0.00
2022-11-05T02:25:55.498Z,0.00
2022-11-05T02:26:55.499Z,0.00
2022-11-05T02:27:55.510Z,0.00
2022-11-05T02:28:55.467Z,0.00
2022-11-05T02:29:55.486Z,0.00
2022-11-05T02:30:55.450Z,0.00
2022-11-05T02:31:55.430Z,0.00
2022-11-05T02:32:55.459Z,0.00
2022-11-05T02:33:55.418Z,0.00
2022-11-05T02:34:55.403Z,0.00
2022-11-05T02:35:55.367Z,0.00
2022-11-05T02:36:55.381Z,0.00
2022-11-05T02:37:55.373Z,0.00
2022-11-05T02:38:55.339Z,0.00
2022-11-05T02:39:55.360Z,0.00
2022-11-05T02:40:55.334Z,0.00
2022-11-05T02:41:58.135Z,0.00
2022-11-05T02:42:56.301Z,0.00
2022-11-05T02:43:55.269Z,0.00
2022-11-05T02:44:55.268Z,0.00
2022-11-05T02:45:55.238Z,0.00
2022-11-05T02:46:55.249Z,0.00
2022-11-05T02:47:55.243Z,0.00
2022-11-05T02:48:55.214Z,0.00
2022-11-05T02:49:55.187Z,0.00
2022-11-05T02:50:55.194Z,0.00
2022-11-05T02:51:55.204Z,0.00
2022-11-05T02:52:55.201Z,0.00
2022-11-05T02:53:55.145Z,0.00
2022-11-05T02:54:55.147Z,0.00
2022-11-05T02:55:55.127Z,0.00
2022-11-05T02:56:55.103Z,0.00
2022-11-05T02:57:55.134Z,0.00
2022-11-05T02:58:55.076Z,0.00
2022-11-05T02:59:55.061Z,0.00
2022-11-05T03:00:55.057Z,0.00
2022-11-05T03:01:55.152Z,0.00
2022-11-05T03:02:55.137Z,0.00
2022-11-05T03:03:55.005Z,0.00
2022-11-05T03:04:55.005Z,0.00
2022-11-05T03:05:54.982Z,0.00
2022-11-05T03:06:54.993Z,0.00
2022-11-05T03:07:54.962Z,0.00
2022-11-05T03:08:54.954Z,0.00
2022-11-05T03:09:54.931Z,0.00
2022-11-05T03:10:54.923Z,0.00
2022-11-05T03:11:54.913Z,0.00
2022-11-05T03:12:54.919Z,0.00
2022-11-05T03:13:54.872Z,0.00
2022-11-05T03:14:54.863Z,0.00
2022-11-05T03:15:54.861Z,0.00
2022-11-05T03:16:54.842Z,0.00
2022-11-05T03:17:54.843Z,0.00
2022-11-05T03:18:54.817Z,0.00
2022-11-05T03:19:54.802Z,0.00
2022-11-05T03:20:54.830Z,0.00
2022-11-05T03:21:54.774Z,0.00
2022-11-05T03:22:54.788Z,0.00
2022-11-05T03:23:54.752Z,0.00
2022-11-05T03:24:54.732Z,0.00
2022-11-05T03:25:54.721Z,0.00
2022-11-05T03:26:54.721Z,0.00
2022-11-05T03:27:54.700Z,0.00
2022-11-05T03:28:54.685Z,0.00
2022-11-05T03:29:54.671Z,0.00
2022-11-05T03:30:54.670Z,0.00
2022-11-05T03:31:54.641Z,0.00
2022-11-05T03:32:54.666Z,0.00
2022-11-05T03:33:54.608Z,0.00
2022-11-05T03:34:54.609Z,0.00
2022-11-05T03:35:54.589Z,0.00
2022-11-05T03:36:54.589Z,0.00
2022-11-05T03:37:54.582Z,0.00
2022-11-05T03:38:54.549Z,0.00
2022-11-05T03:39:54.546Z,0.00
2022-11-05T03:40:54.533Z,0.00
2022-11-05T03:41:54.507Z,0.00
2022-11-05T03:42:54.511Z,0.00
2022-11-05T03:43:54.480Z,0.00
2022-11-05T03:44:54.482Z,0.00
2022-11-05T03:45:54.466Z,0.00
2022-11-05T03:46:54.458Z,0.00
2022-11-05T03:47:54.467Z,0.00
2022-11-05T03:48:54.489Z,0.00
2022-11-05T03:49:54.411Z,0.00
2022-11-05T03:50:54.400Z,0.00
2022-11-05T03:51:54.391Z,0.00
2022-11-05T03:52:54.392Z,0.00
2022-11-05T03:53:54.347Z,0.00
2022-11-05T03:54:54.346Z,0.00
2022-11-05T03:55:54.320Z,0.00
2022-11-05T03:56:54.327Z,0.00
2022-11-05T03:57:54.309Z,0.00
2022-11-05T03:58:58.726Z,0.00
2022-11-05T03:59:55.270Z,0.00
2022-11-05T04:00:54.268Z,0.00
2022-11-05T04:01:54.340Z,0.00
2022-11-05T04:02:54.325Z,0.00
2022-11-05T04:03:54.232Z,0.00
2022-11-05T04:04:54.216Z,0.00
2022-11-05T04:05:54.195Z,0.00
2022-11-05T04:06:54.194Z,0.00
2022-11-05T04:07:54.185Z,0.00
2022-11-05T04:08:54.157Z,0.00
2022-11-05T04:09:54.143Z,0.00
2022-11-05T04:10:54.134Z,0.00
2022-11-05T04:11:54.104Z,0.00
2022-11-05T04:12:54.114Z,0.00
2022-11-05T04:13:54.094Z,0.00
2022-11-05T04:14:54.104Z,0.00
2022-11-05T04:15:54.096Z,0.00
2022-11-05T04:16:54.106Z,0.00
2022-11-05T04:17:54.052Z,0.00
2022-11-05T04:18:54.035Z,0.00
2022-11-05T04:19:54.023Z,0.00
2022-11-05T04:20:54.017Z,0.00
2022-11-05T04:21:53.973Z,0.00
2022-11-05T04:22:53.994Z,0.00
2022-11-05T04:23:53.953Z,0.00
2022-11-05T04:24:53.956Z,0.00
2022-11-05T04:25:53.931Z,0.00
2022-11-05T04:26:53.935Z,0.00
2022-11-05T04:27:53.933Z,0.00
2022-11-05T04:28:53.923Z,0.00
2022-11-05T04:29:53.883Z,0.00
2022-11-05T04:30:53.871Z,0.00
2022-11-05T04:31:53.852Z,0.00
2022-11-05T04:32:53.882Z,0.00
2022-11-05T04:33:53.831Z,0.00
2022-11-05T04:34:53.826Z,0.00
2022-11-05T04:35:53.806Z,0.00
2022-11-05T04:36:53.787Z,0.00
2022-11-05T04:37:53.783Z,0.00
2022-11-05T04:38:53.959Z,0.00
2022-11-05T04:39:53.749Z,0.00
2022-11-05T04:40:53.741Z,0.00
2022-11-05T04:41:53.719Z,0.00
2022-11-05T04:42:53.730Z,0.00
2022-11-05T04:43:53.705Z,0.00
2022-11-05T04:44:53.699Z,0.00
2022-11-05T04:45:53.670Z,0.00
2022-11-05T04:46:53.684Z,0.00
2022-11-05T04:47:53.711Z,0.00
2022-11-05T04:48:53.767Z,0.00
2022-11-05T04:49:53.609Z,0.00
2022-11-05T04:50:53.619Z,0.00
2022-11-05T04:51:53.591Z,0.00
2022-11-05T04:52:53.653Z,0.00
2022-11-05T04:53:53.581Z,0.00
2022-11-05T04:54:53.549Z,0.00
2022-11-05T04:55:53.546Z,0.00
2022-11-05T04:56:53.552Z,0.00
2022-11-05T04:57:53.529Z,0.00
2022-11-05T04:58:53.510Z,0.00
2022-11-05T04:59:53.487Z,0.00
2022-11-05T05:00:53.616Z,0.00
2022-11-05T05:01:53.539Z,0.00
2022-11-05T05:02:53.467Z,0.00
2022-11-05T05:03:53.471Z,0.00
2022-11-05T05:04:53.420Z,0.00
2022-11-05T05:05:54.013Z,0.00
2022-11-05T05:06:53.416Z,0.00
2022-11-05T05:07:53.391Z,0.00
2022-11-05T05:08:53.366Z,0.00
2022-11-05T05:09:53.365Z,0.00
2022-11-05T05:10:53.360Z,0.00
2022-11-05T05:11:53.366Z,0.00
2022-11-05T05:12:53.365Z,0.00
2022-11-05T05:13:53.336Z,0.00
2022-11-05T05:14:53.305Z,0.00
2022-11-05T05:15:53.315Z,0.00
2022-11-05T05:16:53.272Z,0.00
2022-11-05T05:17:53.294Z,0.00
2022-11-05T05:18:53.245Z,0.00
2022-11-05T05:19:53.232Z,0.00
2022-11-05T05:20:53.214Z,0.00
2022-11-05T05:21:53.223Z,0.00
2022-11-05T05:22:53.207Z,0.00
2022-11-05T05:23:53.199Z,0.00
2022-11-05T05:24:53.308Z,0.00
2022-11-05T05:25:53.175Z,0.00
2022-11-05T05:26:53.155Z,0.00
2022-11-05T05:27:53.142Z,0.00
2022-11-05T05:28:53.164Z,0.00
2022-11-05T05:29:53.094Z,0.00
2022-11-05T05:30:58.492Z,0.00
2022-11-05T05:31:54.075Z,0.00
2022-11-05T05:32:53.078Z,0.00
2022-11-05T05:33:53.088Z,0.00
2022-11-05T05:34:53.038Z,0.00
2022-11-05T05:35:53.033Z,0.00
2022-11-05T05:36:52.999Z,0.00
2022-11-05T05:37:53.033Z,0.00
2022-11-05T05:38:52.962Z,0.00
2022-11-05T05:39:52.994Z,0.00
2022-11-05T05:40:52.954Z,0.00
2022-11-05T05:41:52.963Z,4.00
2022-11-05T05:42:52.937Z,4.00
2022-11-05T05:43:52.918Z,0.00
2022-11-05T05:44:52.927Z,4.00
2022-11-05T05:45:52.902Z,4.00
2022-11-05T05:46:52.912Z,4.00
2022-11-05T05:47:52.900Z,4.00
2022-11-05T05:48:52.854Z,8.00
2022-11-05T05:49:52.834Z,8.00
2022-11-05T05:50:52.823Z,8.00
2022-11-05T05:51:52.830Z,12.00
2022-11-05T05:52:52.815Z,8.00
2022-11-05T05:53:52.814Z,12.00
2022-11-05T05:54:52.761Z,12.00
2022-11-05T05:55:52.763Z,12.00
2022-11-05T05:56:52.761Z,12.00
2022-11-05T05:57:52.750Z,16.00
2022-11-05T05:58:52.746Z,20.00
2022-11-05T05:59:52.711Z,24.00
2022-11-05T06:00:52.733Z,24.00
2022-11-05T06:01:52.766Z,32.00
2022-11-05T06:02:52.718Z,32.00
2022-11-05T06:03:52.650Z,36.00
2022-11-05T06:04:52.665Z,36.00
2022-11-05T06:05:52.645Z,40.00
2022-11-05T06:06:52.611Z,40.00
2022-11-05T06:07:52.616Z,40.00
2022-11-05T06:08:52.578Z,40.00
2022-11-05T06:09:52.599Z,44.00
2022-11-05T06:10:52.592Z,44.00
2022-11-05T06:11:52.548Z,52.00
2022-11-05T06:12:52.559Z,56.00
2022-11-05T06:13:52.539Z,60.00
2022-11-05T06:14:52.529Z,64.00
2022-11-05T06:15:52.498Z,68.00
2022-11-05T06:16:52.486Z,72.00
2022-11-05T06:17:52.503Z,72.00
2022-11-05T06:18:52.691Z,76.00
2022-11-05T06:19:52.451Z,84.00
2022-11-05T06:20:52.437Z,84.00
2022-11-05T06:21:52.437Z,96.00
2022-11-05T06:22:52.424Z,100.00
2022-11-05T06:23:52.406Z,108.00
2022-11-05T06:24:52.385Z,116.00
2022-11-05T06:25:52.368Z,124.00
2022-11-05T06:26:52.377Z,128.00
2022-11-05T06:27:52.357Z,136.00
2022-11-05T06:28:52.326Z,144.00
2022-11-05T06:29:52.345Z,156.00
2022-11-05T06:30:52.296Z,164.00
2022-11-05T06:31:52.304Z,176.00
2022-11-05T06:32:52.305Z,192.00
2022-11-05T06:33:52.269Z,208.00
2022-11-05T06:34:52.245Z,236.00
2022-11-05T06:35:52.235Z,272.00
2022-11-05T06:36:52.223Z,320.00
2022-11-05T06:37:52.287Z,364.00
2022-11-05T06:38:52.209Z,392.00
2022-11-05T06:39:52.194Z,408.00
2022-11-05T06:40:52.224Z,432.00
2022-11-05T06:42:17.275Z,460.00
2022-11-05T06:42:53.174Z,508.00
2022-11-05T06:43:52.131Z,580.00
2022-11-05T06:44:52.147Z,668.00
2022-11-05T06:45:52.129Z,768.00
2022-11-05T06:46:52.115Z,844.00
2022-11-05T06:47:52.144Z,880.00
2022-11-05T06:48:52.080Z,884.00
2022-11-05T06:49:52.074Z,856.00
2022-11-05T06:50:52.061Z,808.00
2022-11-05T06:51:52.042Z,768.00
2022-11-05T06:52:52.033Z,740.00
2022-11-05T06:53:52.012Z,736.00
2022-11-05T06:54:51.993Z,756.00
2022-11-05T06:55:51.974Z,796.00
2022-11-05T06:56:51.972Z,852.00
2022-11-05T06:57:51.984Z,896.00
2022-11-05T06:58:51.930Z,920.00
2022-11-05T06:59:55.761Z,884.00
2022-11-05T07:00:52.994Z,820.00
2022-11-05T07:01:51.966Z,764.00
2022-11-05T07:02:51.918Z,744.00
2022-11-05T07:03:51.978Z,756.00
2022-11-05T07:04:51.878Z,760.00
2022-11-05T07:05:51.861Z,736.00
2022-11-05T07:06:51.830Z,712.00
2022-11-05T07:07:51.849Z,688.00
2022-11-05T07:08:51.830Z,692.00
2022-11-05T07:09:51.800Z,736.00
2022-11-05T07:10:51.801Z,808.00
2022-11-05T07:11:51.791Z,868.00
2022-11-05T07:12:51.783Z,952.00
2022-11-05T07:13:51.755Z,1076.00
2022-11-05T07:14:51.748Z,1140.00
2022-11-05T07:15:51.719Z,1228.00
2022-11-05T07:16:51.700Z,1424.00
2022-11-05T07:17:51.719Z,1736.00
2022-11-05T07:18:51.680Z,1800.00
2022-11-05T07:19:51.700Z,2052.00
2022-11-05T07:20:51.648Z,2072.00
2022-11-05T07:21:51.692Z,2008.00
2022-11-05T07:22:51.651Z,1896.00
2022-11-05T07:23:51.626Z,1636.00
2022-11-05T07:24:51.598Z,1420.00
2022-11-05T07:25:51.618Z,1252.00
2022-11-05T07:26:51.586Z,1232.00
2022-11-05T07:27:51.609Z,1276.00
2022-11-05T07:28:51.556Z,1380.00
2022-11-05T07:29:51.546Z,1500.00
2022-11-05T07:30:51.518Z,1572.00
2022-11-05T07:31:51.528Z,1548.00
2022-11-05T07:32:51.536Z,1648.00
2022-11-05T07:33:51.509Z,1704.00
2022-11-05T07:34:51.466Z,1816.00
2022-11-05T07:35:51.563Z,1900.00
2022-11-05T07:36:51.466Z,2176.00
2022-11-05T07:37:51.442Z,2056.00
2022-11-05T07:38:54.882Z,1628.00
2022-11-05T07:39:52.416Z,1536.00
2022-11-05T07:40:51.398Z,1488.00
2022-11-05T07:41:51.386Z,1432.00
2022-11-05T07:42:51.393Z,1416.00
2022-11-05T07:43:51.375Z,1424.00
2022-11-05T07:44:51.355Z,1532.00
2022-11-05T07:45:51.360Z,1792.00
2022-11-05T07:46:51.354Z,2080.00
2022-11-05T07:47:51.319Z,2368.00
2022-11-05T07:48:51.300Z,2516.00
2022-11-05T07:49:51.278Z,2620.00
2022-11-05T07:50:51.261Z,3088.00
2022-11-05T07:51:51.266Z,3092.00
2022-11-05T07:52:51.247Z,3456.00
2022-11-05T07:53:51.213Z,3248.00
2022-11-05T07:54:51.216Z,3244.00
2022-11-05T07:55:51.254Z,3760.00
2022-11-05T07:56:51.193Z,3748.00
2022-11-05T07:57:51.255Z,3588.00
2022-11-05T07:58:51.155Z,5396.00
2022-11-05T07:59:51.173Z,3112.00
2022-11-05T08:00:51.242Z,3360.00
2022-11-05T08:01:51.393Z,3560.00
2022-11-05T08:02:51.243Z,3788.00
2022-11-05T08:03:51.093Z,4624.00
2022-11-05T08:04:51.081Z,5932.00
2022-11-05T08:05:51.072Z,6864.00
2022-11-05T08:06:51.088Z,10472.00
2022-11-05T08:07:51.046Z,9004.00
2022-11-05T08:08:51.032Z,18464.00
2022-11-05T08:09:51.013Z,17088.00
2022-11-05T08:10:51.007Z,19616.00
2022-11-05T08:11:53.020Z,21664.00
2022-11-05T08:12:50.974Z,34912.00
2022-11-05T08:13:50.975Z,34016.00
2022-11-05T08:14:50.951Z,19904.00
2022-11-05T08:15:50.945Z,17984.00
2022-11-05T08:16:50.941Z,23808.00
2022-11-05T08:17:50.910Z,10232.00
2022-11-05T08:18:50.902Z,6572.00
2022-11-05T08:19:50.882Z,7340.00
2022-11-05T08:20:50.903Z,4076.00
2022-11-05T08:21:50.883Z,4604.00
2022-11-05T08:22:50.845Z,3648.00
2022-11-05T08:23:50.826Z,2968.00
2022-11-05T08:24:50.822Z,2536.00
2022-11-05T08:25:50.812Z,2544.00
2022-11-05T08:26:50.807Z,2696.00
2022-11-05T08:27:50.787Z,2972.00
2022-11-05T08:28:50.760Z,3308.00
2022-11-05T08:29:50.752Z,4648.00
2022-11-05T08:30:50.753Z,26400.00
2022-11-05T08:31:50.751Z,4160.00
2022-11-05T08:32:50.701Z,3612.00
2022-11-05T08:33:50.705Z,4216.00
2022-11-05T08:34:50.674Z,11516.00
2022-11-05T08:35:50.682Z,4908.00
2022-11-05T08:36:50.670Z,10928.00
2022-11-05T08:37:50.675Z,8848.00
2022-11-05T08:38:50.630Z,4532.00
2022-11-05T08:39:50.615Z,3672.00
2022-11-05T08:40:50.621Z,3700.00
2022-11-05T08:41:50.608Z,17504.00
2022-11-05T08:42:50.625Z,4792.00
2022-11-05T08:43:50.581Z,4404.00
2022-11-05T08:44:50.539Z,7452.00
2022-11-05T08:45:50.549Z,7832.00
2022-11-05T08:46:50.553Z,5632.00
2022-11-05T08:47:50.509Z,6200.00
2022-11-05T08:48:50.514Z,4972.00
2022-11-05T08:49:50.488Z,4152.00
2022-11-05T08:50:50.513Z,4672.00
2022-11-05T08:51:50.464Z,5520.00
2022-11-05T08:52:50.602Z,4696.00
2022-11-05T08:53:50.437Z,3128.00
2022-11-05T08:54:50.472Z,2976.00
2022-11-05T08:55:50.408Z,3256.00
2022-11-05T08:56:50.380Z,3320.00
2022-11-05T08:57:50.374Z,3016.00
2022-11-05T08:58:50.361Z,3224.00
2022-11-05T08:59:50.384Z,4592.00
2022-11-05T09:00:50.447Z,2576.00
2022-11-05T09:01:50.510Z,2388.00
2022-11-05T09:02:50.317Z,2356.00
2022-11-05T09:03:50.301Z,2512.00
2022-11-05T09:04:50.333Z,2664.00
2022-11-05T09:05:50.299Z,2488.00
2022-11-05T09:06:50.249Z,2480.00
2022-11-05T09:07:50.257Z,2688.00
2022-11-05T09:08:50.230Z,3044.00
2022-11-05T09:09:50.220Z,3816.00
2022-11-05T09:10:50.213Z,3812.00
2022-11-05T09:12:11.131Z,5220.00
2022-11-05T09:12:51.173Z,9176.00
2022-11-05T09:13:50.211Z,13904.00
2022-11-05T09:14:50.151Z,5072.00
2022-11-05T09:15:50.157Z,8992.00
2022-11-05T09:16:50.120Z,16128.00
2022-11-05T09:17:50.159Z,20192.00
2022-11-05T09:18:50.117Z,18304.00
2022-11-05T09:19:50.097Z,10256.00
2022-11-05T09:20:50.082Z,6400.00
2022-11-05T09:21:50.078Z,5448.00
2022-11-05T09:22:50.045Z,5272.00
2022-11-05T09:23:50.044Z,5072.00
2022-11-05T09:24:50.726Z,4880.00
2022-11-05T09:25:50.018Z,4904.00
2022-11-05T09:26:50.011Z,4908.00
2022-11-05T09:27:50.002Z,4668.00
2022-11-05T09:28:49.988Z,4252.00
2022-11-05T09:29:49.939Z,5172.00
2022-11-05T09:30:49.996Z,5308.00
2022-11-05T09:31:49.919Z,5152.00
2022-11-05T09:32:49.913Z,5268.00
2022-11-05T09:33:49.913Z,5076.00
2022-11-05T09:34:49.883Z,4708.00
2022-11-05T09:35:49.880Z,4492.00
2022-11-05T09:36:49.870Z,3864.00
2022-11-05T09:37:49.858Z,3568.00
2022-11-05T09:38:49.832Z,3328.00
2022-11-05T09:39:49.849Z,3280.00
2022-11-05T09:40:49.837Z,3172.00
2022-11-05T09:41:49.790Z,3212.00
2022-11-05T09:42:49.815Z,3644.00
2022-11-05T09:43:49.769Z,3604.00
2022-11-05T09:44:49.806Z,3392.00
2022-11-05T09:45:49.762Z,3436.00
2022-11-05T09:46:49.732Z,3532.00
2022-11-05T09:47:49.729Z,3380.00
2022-11-05T09:48:49.801Z,3224.00
2022-11-05T09:49:49.701Z,3220.00
2022-11-05T09:50:49.702Z,3832.00
2022-11-05T09:51:49.689Z,3516.00
2022-11-05T09:52:49.650Z,4088.00
2022-11-05T09:53:49.639Z,4436.00
2022-11-05T09:54:49.632Z,4572.00
2022-11-05T09:55:49.632Z,4512.00
2022-11-05T09:56:49.609Z,4076.00
2022-11-05T09:57:49.577Z,3788.00
2022-11-05T09:58:49.573Z,3824.00
2022-11-05T09:59:49.576Z,4288.00
2022-11-05T10:00:49.639Z,4260.00
2022-11-05T10:01:49.694Z,3268.00
2022-11-05T10:02:49.552Z,3200.00
2022-11-05T10:03:49.508Z,2784.00
2022-11-05T10:04:49.536Z,3020.00
2022-11-05T10:05:49.630Z,3096.00
2022-11-05T10:06:49.470Z,2768.00
2022-11-05T10:07:49.459Z,3072.00
2022-11-05T10:08:49.482Z,3132.00
2022-11-05T10:09:49.434Z,3444.00
2022-11-05T10:10:49.438Z,3692.00
2022-11-05T10:11:49.403Z,3704.00
2022-11-05T10:12:49.409Z,3672.00
2022-11-05T10:13:49.509Z,3576.00
2022-11-05T10:14:49.360Z,3500.00
2022-11-05T10:15:49.349Z,2792.00
2022-11-05T10:16:49.334Z,2316.00
2022-11-05T10:17:49.310Z,2840.00
2022-11-05T10:18:49.301Z,3104.00
2022-11-05T10:19:49.299Z,3120.00
2022-11-05T10:20:49.311Z,3084.00
2022-11-05T10:22:06.148Z,3024.00
2022-11-05T10:22:50.255Z,3024.00
2022-11-05T10:23:49.249Z,2988.00
2022-11-05T10:24:49.234Z,2948.00
2022-11-05T10:25:49.238Z,2944.00
2022-11-05T10:26:49.219Z,2852.00
2022-11-05T10:27:49.194Z,2824.00
2022-11-05T10:28:49.174Z,2756.00
2022-11-05T10:29:49.188Z,2772.00
2022-11-05T10:30:49.157Z,3028.00
2022-11-05T10:31:49.135Z,2980.00
2022-11-05T10:32:49.123Z,2908.00
2022-11-05T10:33:49.124Z,2936.00
2022-11-05T10:34:49.101Z,2932.00
2022-11-05T10:35:49.093Z,2880.00
2022-11-05T10:36:49.083Z,2176.00
2022-11-05T10:37:49.053Z,2468.00
2022-11-05T10:38:49.043Z,1992.00
2022-11-05T10:39:49.021Z,2956.00
2022-11-05T10:40:49.042Z,3100.00
2022-11-05T10:41:49.005Z,3308.00
2022-11-05T10:42:48.991Z,3376.00
2022-11-05T10:43:48.972Z,3424.00
2022-11-05T10:44:48.973Z,3444.00
2022-11-05T10:45:48.963Z,3520.00
2022-11-05T10:46:48.943Z,3488.00
2022-11-05T10:47:48.923Z,3440.00
2022-11-05T10:48:48.932Z,3400.00
2022-11-05T10:49:48.901Z,2960.00
2022-11-05T10:50:48.917Z,3504.00
2022-11-05T10:51:48.881Z,3380.00
2022-11-05T10:52:48.868Z,3300.00
2022-11-05T10:53:48.860Z,3244.00
2022-11-05T10:54:48.831Z,2884.00
2022-11-05T10:55:48.874Z,3152.00
2022-11-05T10:56:48.803Z,2052.00
2022-11-05T10:57:48.795Z,1844.00
2022-11-05T10:58:48.808Z,1832.00
2022-11-05T10:59:48.754Z,1872.00
2022-11-05T11:00:48.847Z,1996.00
2022-11-05T11:01:48.872Z,2944.00
2022-11-05T11:02:48.734Z,3044.00
2022-11-05T11:03:48.705Z,2448.00
2022-11-05T11:04:48.702Z,2180.00
2022-11-05T11:05:48.787Z,3064.00
2022-11-05T11:06:48.686Z,3052.00
2022-11-05T11:07:48.668Z,3092.00
2022-11-05T11:08:48.676Z,2516.00
2022-11-05T11:09:48.665Z,2724.00
2022-11-05T11:10:48.645Z,2908.00
2022-11-05T11:11:48.605Z,2572.00
2022-11-05T11:12:48.594Z,2892.00
2022-11-05T11:13:48.585Z,1904.00
2022-11-05T11:14:48.593Z,1800.00
2022-11-05T11:15:48.547Z,2740.00
2022-11-05T11:16:48.542Z,2736.00
2022-11-05T11:17:48.526Z,1804.00
2022-11-05T11:18:48.524Z,1748.00
2022-11-05T11:19:48.527Z,1784.00
2022-11-05T11:20:48.508Z,1756.00
2022-11-05T11:21:48.477Z,1728.00
2022-11-05T11:22:48.503Z,1648.00
2022-11-05T11:23:48.465Z,1528.00
2022-11-05T11:24:48.515Z,1460.00
2022-11-05T11:25:48.418Z,1372.00
2022-11-05T11:26:48.419Z,1388.00
2022-11-05T11:27:48.408Z,1388.00
2022-11-05T11:28:48.394Z,1364.00
2022-11-05T11:29:49.679Z,1356.00
2022-11-05T11:30:48.357Z,1356.00
2022-11-05T11:31:48.339Z,1284.00
2022-11-05T11:32:48.386Z,1208.00
2022-11-05T11:33:48.317Z,1140.00
2022-11-05T11:34:48.348Z,1068.00
2022-11-05T11:35:48.291Z,1016.00
2022-11-05T11:36:48.285Z,988.00
2022-11-05T11:37:48.255Z,972.00
2022-11-05T11:38:48.268Z,940.00
2022-11-05T11:39:48.244Z,928.00
2022-11-05T11:40:48.248Z,932.00
2022-11-05T11:41:48.212Z,964.00
2022-11-05T11:42:48.216Z,980.00
2022-11-05T11:43:48.193Z,1000.00
2022-11-05T11:44:48.221Z,1028.00
2022-11-05T11:45:48.157Z,1040.00
2022-11-05T11:46:48.406Z,1052.00
2022-11-05T11:47:48.204Z,1084.00
2022-11-05T11:48:48.127Z,1756.00
2022-11-05T11:49:48.130Z,2140.00
2022-11-05T11:50:48.096Z,2172.00
2022-11-05T11:51:50.123Z,2200.00
2022-11-05T11:52:48.291Z,2224.00
2022-11-05T11:53:48.045Z,2244.00
2022-11-05T11:54:48.061Z,2292.00
2022-11-05T11:55:48.029Z,2352.00
2022-11-05T11:56:48.060Z,2388.00
2022-11-05T11:57:48.091Z,2436.00
2022-11-05T11:58:48.043Z,2448.00
2022-11-05T12:00:07.820Z,2024.00
2022-11-05T12:00:49.162Z,1608.00
2022-11-05T12:01:48.020Z,1592.00
2022-11-05T12:02:47.999Z,1464.00
2022-11-05T12:03:47.925Z,1348.00
2022-11-05T12:04:47.926Z,1276.00
2022-11-05T12:05:47.934Z,1224.00
2022-11-05T12:06:47.891Z,1176.00
2022-11-05T12:07:47.880Z,1100.00
2022-11-05T12:08:52.340Z,1016.00
2022-11-05T12:09:48.843Z,948.00
2022-11-05T12:10:47.836Z,892.00
2022-11-05T12:11:47.946Z,856.00
2022-11-05T12:12:47.806Z,836.00
2022-11-05T12:13:47.813Z,816.00
2022-11-05T12:14:47.835Z,780.00
2022-11-05T12:15:47.776Z,760.00
2022-11-05T12:16:47.768Z,760.00
2022-11-05T12:17:47.740Z,756.00
2022-11-05T12:18:47.733Z,772.00
2022-11-05T12:19:47.720Z,792.00
2022-11-05T12:20:48.649Z,804.00
2022-11-05T12:21:53.055Z,824.00
2022-11-05T12:22:48.669Z,804.00
2022-11-05T12:23:47.694Z,796.00
2022-11-05T12:24:47.660Z,784.00
2022-11-05T12:25:48.307Z,768.00
2022-11-05T12:26:47.621Z,736.00
2022-11-05T12:27:47.618Z,708.00
2022-11-05T12:29:16.609Z,688.00
2022-11-05T12:29:48.585Z,668.00
2022-11-05T12:30:47.569Z,660.00
2022-11-05T12:31:47.548Z,652.00
2022-11-05T12:32:47.652Z,664.00
2022-11-05T12:33:47.525Z,668.00
2022-11-05T12:34:47.547Z,668.00
2022-11-05T12:35:49.976Z,660.00
2022-11-05T12:36:47.488Z,660.00
2022-11-05T12:37:47.459Z,668.00
2022-11-05T12:38:47.490Z,680.00
2022-11-05T12:39:47.458Z,712.00
2022-11-05T12:40:47.429Z,748.00
2022-11-05T12:41:47.587Z,780.00